sensor_id;sensor_type;location;lat;lon;timestamp;P1;durP1;ratioP1;P2;durP2;ratioP2
33495;SDS011;19836;55.812;37.560;2022-09-27T00:00:30;6.60;;;3.45;;
33495;SDS011;19836;55.812;37.560;2022-09-27T00:02:56;4.93;;;3.38;;
33495;SDS011;19836;55.812;37.560;2022-09-27T00:05:22;4.88;;;3.05;;
33495;SDS011;19836;55.812;37.560;2022-09-27T00:07:48;7.63;;;3.92;;
33495;SDS011;19836;55.812;37.560;2022-09-27T00:10:14;4.13;;;3.45;;
33495;SDS011;19836;55.812;37.560;2022-09-27T00:12:40;8.30;;;3.40;;
33495;SDS011;19836;55.812;37.560;2022-09-27T00:15:07;8.15;;;3.83;;
33495;SDS011;19836;55.812;37.560;2022-09-27T00:17:34;5.50;;;3.90;;
33495;SDS011;19836;55.812;37.560;2022-09-27T00:20:02;3.65;;;3.30;;
33495;SDS011;19836;55.812;37.560;2022-09-27T00:22:28;5.15;;;3.50;;
33495;SDS011;19836;55.812;37.560;2022-09-27T00:24:55;24.55;;;4.35;;
33495;SDS011;19836;55.812;37.560;2022-09-27T00:27:21;11.50;;;3.92;;
33495;SDS011;19836;55.812;37.560;2022-09-27T00:29:47;20.50;;;4.78;;
33495;SDS011;19836;55.812;37.560;2022-09-27T00:32:13;138.75;;;7.10;;
33495;SDS011;19836;55.812;37.560;2022-09-27T00:34:40;57.20;;;4.40;;
33495;SDS011;19836;55.812;37.560;2022-09-27T00:37:07;49.92;;;4.55;;
33495;SDS011;19836;55.812;37.560;2022-09-27T00:39:33;46.63;;;3.83;;
33495;SDS011;19836;55.812;37.560;2022-09-27T00:42:14;27.60;;;3.70;;
33495;SDS011;19836;55.812;37.560;2022-09-27T00:47:19;13.02;;;2.92;;
33495;SDS011;19836;55.812;37.560;2022-09-27T00:50:02;32.47;;;4.03;;
33495;SDS011;19836;55.812;37.560;2022-09-27T00:52:42;31.38;;;3.28;;
33495;SDS011;19836;55.812;37.560;2022-09-27T00:55:23;11.00;;;2.72;;
33495;SDS011;19836;55.812;37.560;2022-09-27T00:57:53;22.40;;;3.05;;
33495;SDS011;19836;55.812;37.560;2022-09-27T01:00:20;9.80;;;2.53;;
33495;SDS011;19836;55.812;37.560;2022-09-27T01:02:49;8.82;;;2.80;;
33495;SDS011;19836;55.812;37.560;2022-09-27T01:05:18;5.30;;;2.33;;
33495;SDS011;19836;55.812;37.560;2022-09-27T01:07:47;13.20;;;2.70;;
33495;SDS011;19836;55.812;37.560;2022-09-27T01:10:13;9.35;;;2.70;;
33495;SDS011;19836;55.812;37.560;2022-09-27T01:12:44;8.60;;;2.80;;
33495;SDS011;19836;55.812;37.560;2022-09-27T01:32:00;13.32;;;3.03;;
33495;SDS011;19836;55.812;37.560;2022-09-27T01:35:09;2.58;;;2.17;;
33495;SDS011;19836;55.812;37.560;2022-09-27T01:40:45;8.02;;;2.33;;
33495;SDS011;19836;55.812;37.560;2022-09-27T01:44:11;10.18;;;2.17;;
33495;SDS011;19836;55.812;37.560;2022-09-27T01:46:49;26.85;;;3.20;;
33495;SDS011;19836;55.812;37.560;2022-09-27T01:49:59;8.68;;;2.22;;
33495;SDS011;19836;55.812;37.560;2022-09-27T01:52:36;7.13;;;2.13;;
33495;SDS011;19836;55.812;37.560;2022-09-27T01:55:08;7.68;;;2.50;;
33495;SDS011;19836;55.812;37.560;2022-09-27T01:58:15;10.20;;;2.50;;
33495;SDS011;19836;55.812;37.560;2022-09-27T02:00:50;7.63;;;2.28;;
33495;SDS011;19836;55.812;37.560;2022-09-27T02:03:20;11.85;;;2.50;;
33495;SDS011;19836;55.812;37.560;2022-09-27T02:06:09;11.32;;;2.45;;
33495;SDS011;19836;55.812;37.560;2022-09-27T02:08:54;33.63;;;3.08;;
33495;SDS011;19836;55.812;37.560;2022-09-27T02:11:52;14.63;;;3.00;;
33495;SDS011;19836;55.812;37.560;2022-09-27T02:14:26;25.48;;;2.95;;
33495;SDS011;19836;55.812;37.560;2022-09-27T02:17:13;50.20;;;5.18;;
33495;SDS011;19836;55.812;37.560;2022-09-27T02:30:51;44.05;;;3.95;;
33495;SDS011;19836;55.812;37.560;2022-09-27T02:34:10;11.00;;;2.50;;
33495;SDS011;19836;55.812;37.560;2022-09-27T02:36:15;7.82;;;2.53;;
33495;SDS011;19836;55.812;37.560;2022-09-27T02:38:42;15.05;;;2.95;;
33495;SDS011;19836;55.812;37.560;2022-09-27T02:41:15;37.03;;;3.40;;
33495;SDS011;19836;55.812;37.560;2022-09-27T02:43:42;15.13;;;3.13;;
33495;SDS011;19836;55.812;37.560;2022-09-27T02:49:18;5.65;;;2.30;;
33495;SDS011;19836;55.812;37.560;2022-09-27T02:52:28;12.30;;;2.85;;
33495;SDS011;19836;55.812;37.560;2022-09-27T02:55:13;6.63;;;2.70;;
33495;SDS011;19836;55.812;37.560;2022-09-27T03:00:43;9.30;;;2.38;;
33495;SDS011;19836;55.812;37.560;2022-09-27T03:03:39;2.58;;;2.15;;
33495;SDS011;19836;55.812;37.560;2022-09-27T03:06:15;11.57;;;3.00;;
33495;SDS011;19836;55.812;37.560;2022-09-27T03:08:44;5.38;;;2.50;;
33495;SDS011;19836;55.812;37.560;2022-09-27T03:11:10;19.17;;;3.47;;
33495;SDS011;19836;55.812;37.560;2022-09-27T03:13:37;4.18;;;2.55;;
33495;SDS011;19836;55.812;37.560;2022-09-27T03:16:05;5.75;;;3.08;;
33495;SDS011;19836;55.812;37.560;2022-09-27T03:18:51;10.50;;;2.75;;
33495;SDS011;19836;55.812;37.560;2022-09-27T03:21:36;9.20;;;2.95;;
33495;SDS011;19836;55.812;37.560;2022-09-27T03:24:02;5.75;;;2.60;;
33495;SDS011;19836;55.812;37.560;2022-09-27T03:26:29;4.05;;;2.50;;
33495;SDS011;19836;55.812;37.560;2022-09-27T03:28:55;19.83;;;3.38;;
33495;SDS011;19836;55.812;37.560;2022-09-27T03:31:22;17.42;;;2.65;;
33495;SDS011;19836;55.812;37.560;2022-09-27T03:44:41;27.92;;;3.17;;
33495;SDS011;19836;55.812;37.560;2022-09-27T03:47:07;17.17;;;2.60;;
33495;SDS011;19836;55.812;37.560;2022-09-27T04:04:07;15.68;;;2.45;;
33495;SDS011;19836;55.812;37.560;2022-09-27T04:06:35;24.00;;;3.08;;
33495;SDS011;19836;55.812;37.560;2022-09-27T04:09:49;2.33;;;1.90;;
33495;SDS011;19836;55.812;37.560;2022-09-27T04:12:20;5.53;;;2.15;;
33495;SDS011;19836;55.812;37.560;2022-09-27T04:19:00;24.38;;;2.97;;
33495;SDS011;19836;55.812;37.560;2022-09-27T04:21:47;34.38;;;3.65;;
33495;SDS011;19836;55.812;37.560;2022-09-27T04:24:15;34.03;;;10.07;;
33495;SDS011;19836;55.812;37.560;2022-09-27T04:27:00;13.40;;;2.88;;
33495;SDS011;19836;55.812;37.560;2022-09-27T04:29:26;27.50;;;3.28;;
33495;SDS011;19836;55.812;37.560;2022-09-27T04:31:53;9.18;;;2.67;;
33495;SDS011;19836;55.812;37.560;2022-09-27T04:34:31;21.83;;;2.92;;
33495;SDS011;19836;55.812;37.560;2022-09-27T04:37:21;13.30;;;2.92;;
33495;SDS011;19836;55.812;37.560;2022-09-27T04:39:49;26.30;;;4.35;;
33495;SDS011;19836;55.812;37.560;2022-09-27T04:42:33;8.65;;;2.58;;
33495;SDS011;19836;55.812;37.560;2022-09-27T04:44:59;10.82;;;2.88;;
33495;SDS011;19836;55.812;37.560;2022-09-27T04:47:27;7.30;;;2.42;;
33495;SDS011;19836;55.812;37.560;2022-09-27T04:49:53;7.90;;;2.22;;
33495;SDS011;19836;55.812;37.560;2022-09-27T04:52:19;9.73;;;2.67;;
33495;SDS011;19836;55.812;37.560;2022-09-27T04:54:45;6.43;;;2.35;;
33495;SDS011;19836;55.812;37.560;2022-09-27T04:57:16;6.65;;;2.70;;
33495;SDS011;19836;55.812;37.560;2022-09-27T04:59:42;5.78;;;2.75;;
33495;SDS011;19836;55.812;37.560;2022-09-27T05:02:10;3.65;;;2.85;;
33495;SDS011;19836;55.812;37.560;2022-09-27T05:08:35;4.82;;;3.47;;
33495;SDS011;19836;55.812;37.560;2022-09-27T05:11:24;8.32;;;4.07;;
33495;SDS011;19836;55.812;37.560;2022-09-27T05:14:09;5.50;;;3.40;;
33495;SDS011;19836;55.812;37.560;2022-09-27T05:16:58;9.43;;;6.25;;
33495;SDS011;19836;55.812;37.560;2022-09-27T05:19:47;12.63;;;6.03;;
33495;SDS011;19836;55.812;37.560;2022-09-27T05:22:18;8.45;;;6.18;;
33495;SDS011;19836;55.812;37.560;2022-09-27T05:24:47;10.63;;;6.57;;
33495;SDS011;19836;55.812;37.560;2022-09-27T05:29:51;12.05;;;7.57;;
33495;SDS011;19836;55.812;37.560;2022-09-27T05:32:22;12.15;;;7.35;;
33495;SDS011;19836;55.812;37.560;2022-09-27T05:34:56;13.60;;;7.90;;
33495;SDS011;19836;55.812;37.560;2022-09-27T05:37:31;10.85;;;7.25;;
33495;SDS011;19836;55.812;37.560;2022-09-27T05:41:44;14.88;;;9.10;;
33495;SDS011;19836;55.812;37.560;2022-09-27T05:44:17;13.00;;;8.85;;
33495;SDS011;19836;55.812;37.560;2022-09-27T05:55:54;14.88;;;9.32;;
33495;SDS011;19836;55.812;37.560;2022-09-27T06:40:13;21.95;;;15.43;;
33495;SDS011;19836;55.812;37.560;2022-09-27T06:43:15;20.77;;;13.25;;
33495;SDS011;19836;55.812;37.560;2022-09-27T06:46:06;16.80;;;11.02;;
33495;SDS011;19836;55.812;37.560;2022-09-27T06:52:37;12.10;;;9.07;;
33495;SDS011;19836;55.812;37.560;2022-09-27T06:55:13;10.85;;;9.13;;
33495;SDS011;19836;55.812;37.560;2022-09-27T06:57:43;12.30;;;9.00;;
33495;SDS011;19836;55.812;37.560;2022-09-27T07:00:56;12.52;;;9.35;;
33495;SDS011;19836;55.812;37.560;2022-09-27T07:11:38;15.60;;;9.98;;
33495;SDS011;19836;55.812;37.560;2022-09-27T07:16:35;17.73;;;11.48;;
33495;SDS011;19836;55.812;37.560;2022-09-27T07:19:03;17.42;;;11.90;;
33495;SDS011;19836;55.812;37.560;2022-09-27T07:21:32;15.98;;;11.20;;
33495;SDS011;19836;55.812;37.560;2022-09-27T07:23:59;15.63;;;11.10;;
33495;SDS011;19836;55.812;37.560;2022-09-27T07:26:25;15.05;;;11.00;;
33495;SDS011;19836;55.812;37.560;2022-09-27T07:28:51;14.45;;;11.07;;
33495;SDS011;19836;55.812;37.560;2022-09-27T07:31:19;15.60;;;11.00;;
33495;SDS011;19836;55.812;37.560;2022-09-27T07:37:22;19.30;;;12.40;;
33495;SDS011;19836;55.812;37.560;2022-09-27T07:39:47;21.20;;;12.57;;
33495;SDS011;19836;55.812;37.560;2022-09-27T07:42:16;17.10;;;11.13;;
33495;SDS011;19836;55.812;37.560;2022-09-27T07:44:46;18.58;;;10.55;;
33495;SDS011;19836;55.812;37.560;2022-09-27T07:47:36;16.83;;;11.43;;
33495;SDS011;19836;55.812;37.560;2022-09-27T07:50:10;14.85;;;11.40;;
33495;SDS011;19836;55.812;37.560;2022-09-27T07:52:57;15.32;;;11.63;;
33495;SDS011;19836;55.812;37.560;2022-09-27T07:55:35;14.98;;;10.05;;
33495;SDS011;19836;55.812;37.560;2022-09-27T07:58:11;18.95;;;11.45;;
33495;SDS011;19836;55.812;37.560;2022-09-27T08:00:38;19.27;;;12.13;;
33495;SDS011;19836;55.812;37.560;2022-09-27T08:03:08;18.80;;;12.88;;
33495;SDS011;19836;55.812;37.560;2022-09-27T08:05:36;19.83;;;13.40;;
33495;SDS011;19836;55.812;37.560;2022-09-27T08:08:03;19.23;;;13.40;;
33495;SDS011;19836;55.812;37.560;2022-09-27T08:10:30;20.08;;;13.32;;
33495;SDS011;19836;55.812;37.560;2022-09-27T08:12:58;20.77;;;12.63;;
33495;SDS011;19836;55.812;37.560;2022-09-27T08:15:28;20.88;;;13.05;;
33495;SDS011;19836;55.812;37.560;2022-09-27T08:17:58;20.70;;;13.23;;
33495;SDS011;19836;55.812;37.560;2022-09-27T08:20:44;19.60;;;12.88;;
33495;SDS011;19836;55.812;37.560;2022-09-27T08:23:24;14.75;;;12.57;;
33495;SDS011;19836;55.812;37.560;2022-09-27T08:26:07;14.52;;;12.45;;
33495;SDS011;19836;55.812;37.560;2022-09-27T08:28:46;15.32;;;12.30;;
33495;SDS011;19836;55.812;37.560;2022-09-27T08:31:18;14.57;;;11.02;;
33495;SDS011;19836;55.812;37.560;2022-09-27T08:33:48;10.07;;;9.10;;
33495;SDS011;19836;55.812;37.560;2022-09-27T08:36:15;9.93;;;8.85;;
33495;SDS011;19836;55.812;37.560;2022-09-27T08:38:42;8.02;;;7.32;;
33495;SDS011;19836;55.812;37.560;2022-09-27T08:41:53;8.60;;;7.70;;
33495;SDS011;19836;55.812;37.560;2022-09-27T08:44:39;8.63;;;7.80;;
33495;SDS011;19836;55.812;37.560;2022-09-27T08:47:17;10.50;;;8.73;;
33495;SDS011;19836;55.812;37.560;2022-09-27T08:52:43;14.18;;;9.63;;
33495;SDS011;19836;55.812;37.560;2022-09-27T08:55:19;13.88;;;9.02;;
33495;SDS011;19836;55.812;37.560;2022-09-27T08:57:55;10.63;;;8.65;;
33495;SDS011;19836;55.812;37.560;2022-09-27T09:00:26;10.18;;;8.25;;
33495;SDS011;19836;55.812;37.560;2022-09-27T09:02:57;9.88;;;7.82;;
33495;SDS011;19836;55.812;37.560;2022-09-27T09:05:32;11.13;;;8.35;;
33495;SDS011;19836;55.812;37.560;2022-09-27T09:19:46;6.65;;;6.00;;
33495;SDS011;19836;55.812;37.560;2022-09-27T09:30:46;10.75;;;7.82;;
33495;SDS011;19836;55.812;37.560;2022-09-27T09:33:37;8.10;;;6.88;;
33495;SDS011;19836;55.812;37.560;2022-09-27T09:41:05;10.20;;;7.18;;
33495;SDS011;19836;55.812;37.560;2022-09-27T09:46:36;9.27;;;7.32;;
33495;SDS011;19836;55.812;37.560;2022-09-27T09:52:04;13.30;;;7.70;;
33495;SDS011;19836;55.812;37.560;2022-09-27T09:54:45;8.70;;;6.78;;
33495;SDS011;19836;55.812;37.560;2022-09-27T09:57:17;12.05;;;6.60;;
33495;SDS011;19836;55.812;37.560;2022-09-27T09:59:59;6.80;;;6.10;;
33495;SDS011;19836;55.812;37.560;2022-09-27T10:02:42;8.80;;;6.35;;
33495;SDS011;19836;55.812;37.560;2022-09-27T10:05:22;7.13;;;6.43;;
33495;SDS011;19836;55.812;37.560;2022-09-27T10:07:57;6.78;;;5.90;;
33495;SDS011;19836;55.812;37.560;2022-09-27T10:10:27;8.27;;;6.35;;
33495;SDS011;19836;55.812;37.560;2022-09-27T10:12:53;7.35;;;6.65;;
33495;SDS011;19836;55.812;37.560;2022-09-27T10:15:26;8.25;;;5.70;;
33495;SDS011;19836;55.812;37.560;2022-09-27T10:17:55;6.50;;;5.90;;
33495;SDS011;19836;55.812;37.560;2022-09-27T10:23:12;5.78;;;5.18;;
33495;SDS011;19836;55.812;37.560;2022-09-27T10:26:01;6.85;;;5.05;;
33495;SDS011;19836;55.812;37.560;2022-09-27T10:28:41;5.72;;;5.10;;
33495;SDS011;19836;55.812;37.560;2022-09-27T10:31:20;10.35;;;5.60;;
33495;SDS011;19836;55.812;37.560;2022-09-27T10:34:02;7.13;;;4.28;;
33495;SDS011;19836;55.812;37.560;2022-09-27T10:36:41;5.45;;;3.75;;
33495;SDS011;19836;55.812;37.560;2022-09-27T10:39:08;6.28;;;2.90;;
33495;SDS011;19836;55.812;37.560;2022-09-27T10:41:46;5.70;;;3.60;;
33495;SDS011;19836;55.812;37.560;2022-09-27T10:44:23;2.97;;;2.67;;
33495;SDS011;19836;55.812;37.560;2022-09-27T10:47:07;5.97;;;4.00;;
33495;SDS011;19836;55.812;37.560;2022-09-27T10:49:40;3.13;;;2.83;;
33495;SDS011;19836;55.812;37.560;2022-09-27T10:52:26;4.88;;;2.20;;
33495;SDS011;19836;55.812;37.560;2022-09-27T10:55:00;3.45;;;3.03;;
33495;SDS011;19836;55.812;37.560;2022-09-27T10:57:47;2.45;;;2.20;;
33495;SDS011;19836;55.812;37.560;2022-09-27T11:00:19;3.10;;;2.80;;
33495;SDS011;19836;55.812;37.560;2022-09-27T11:02:53;2.90;;;2.53;;
33495;SDS011;19836;55.812;37.560;2022-09-27T11:07:53;3.20;;;2.58;;
33495;SDS011;19836;55.812;37.560;2022-09-27T11:10:30;4.10;;;2.10;;
33495;SDS011;19836;55.812;37.560;2022-09-27T11:13:07;3.70;;;2.40;;
33495;SDS011;19836;55.812;37.560;2022-09-27T11:18:44;2.08;;;1.88;;
33495;SDS011;19836;55.812;37.560;2022-09-27T11:26:45;3.28;;;2.50;;
33495;SDS011;19836;55.812;37.560;2022-09-27T11:32:21;3.30;;;2.53;;
33495;SDS011;19836;55.812;37.560;2022-09-27T11:46:33;1.65;;;1.30;;
33495;SDS011;19836;55.812;37.560;2022-09-27T11:54:36;2.58;;;1.70;;
33495;SDS011;19836;55.812;37.560;2022-09-27T12:10:54;1.52;;;1.30;;
33495;SDS011;19836;55.812;37.560;2022-09-27T12:13:50;1.70;;;1.10;;
33495;SDS011;19836;55.812;37.560;2022-09-27T12:16:21;1.98;;;1.20;;
33495;SDS011;19836;55.812;37.560;2022-09-27T12:18:49;2.00;;;1.15;;
33495;SDS011;19836;55.812;37.560;2022-09-27T12:21:48;2.00;;;1.20;;
33495;SDS011;19836;55.812;37.560;2022-09-27T12:24:22;2.35;;;0.93;;
33495;SDS011;19836;55.812;37.560;2022-09-27T12:27:00;2.42;;;1.10;;
33495;SDS011;19836;55.812;37.560;2022-09-27T12:29:34;1.20;;;1.02;;
33495;SDS011;19836;55.812;37.560;2022-09-27T12:34:50;1.77;;;1.40;;
33495;SDS011;19836;55.812;37.560;2022-09-27T12:40:04;1.10;;;0.90;;
33495;SDS011;19836;55.812;37.560;2022-09-27T12:51:48;2.47;;;1.60;;
33495;SDS011;19836;55.812;37.560;2022-09-27T13:00:19;1.75;;;1.55;;
33495;SDS011;19836;55.812;37.560;2022-09-27T13:09:55;3.50;;;1.60;;
33495;SDS011;19836;55.812;37.560;2022-09-27T13:12:34;2.67;;;1.88;;
33495;SDS011;19836;55.812;37.560;2022-09-27T13:19:59;1.85;;;1.60;;
33495;SDS011;19836;55.812;37.560;2022-09-27T13:31:13;5.25;;;2.35;;
33495;SDS011;19836;55.812;37.560;2022-09-27T13:36:40;3.30;;;2.13;;
33495;SDS011;19836;55.812;37.560;2022-09-27T13:42:04;3.95;;;2.63;;
33495;SDS011;19836;55.812;37.560;2022-09-27T13:44:42;4.72;;;2.53;;
33495;SDS011;19836;55.812;37.560;2022-09-27T13:50:25;8.68;;;3.35;;
33495;SDS011;19836;55.812;37.560;2022-09-27T13:53:06;8.07;;;3.90;;
33495;SDS011;19836;55.812;37.560;2022-09-27T13:55:52;9.05;;;4.80;;
33495;SDS011;19836;55.812;37.560;2022-09-27T13:58:32;12.75;;;5.25;;
33495;SDS011;19836;55.812;37.560;2022-09-27T14:01:30;11.85;;;4.93;;
33495;SDS011;19836;55.812;37.560;2022-09-27T14:04:04;12.18;;;5.32;;
33495;SDS011;19836;55.812;37.560;2022-09-27T14:06:49;10.00;;;4.25;;
33495;SDS011;19836;55.812;37.560;2022-09-27T14:12:36;11.23;;;4.65;;
33495;SDS011;19836;55.812;37.560;2022-09-27T14:15:11;10.50;;;4.80;;
33495;SDS011;19836;55.812;37.560;2022-09-27T14:17:47;10.88;;;4.57;;
33495;SDS011;19836;55.812;37.560;2022-09-27T14:22:59;8.00;;;3.35;;
33495;SDS011;19836;55.812;37.560;2022-09-27T14:25:31;9.50;;;3.30;;
33495;SDS011;19836;55.812;37.560;2022-09-27T14:27:58;11.40;;;5.00;;
33495;SDS011;19836;55.812;37.560;2022-09-27T14:30:44;6.07;;;2.92;;
33495;SDS011;19836;55.812;37.560;2022-09-27T14:33:30;3.92;;;2.55;;
33495;SDS011;19836;55.812;37.560;2022-09-27T14:36:05;3.63;;;2.33;;
33495;SDS011;19836;55.812;37.560;2022-09-27T14:38:54;3.78;;;2.22;;
33495;SDS011;19836;55.812;37.560;2022-09-27T14:41:34;3.97;;;1.80;;
33495;SDS011;19836;55.812;37.560;2022-09-27T14:44:01;3.05;;;1.80;;
33495;SDS011;19836;55.812;37.560;2022-09-27T14:46:28;2.42;;;1.77;;
33495;SDS011;19836;55.812;37.560;2022-09-27T14:49:20;3.13;;;1.85;;
33495;SDS011;19836;55.812;37.560;2022-09-27T14:51:52;3.22;;;1.73;;
33495;SDS011;19836;55.812;37.560;2022-09-27T14:56:46;5.05;;;1.80;;
33495;SDS011;19836;55.812;37.560;2022-09-27T14:59:14;1.92;;;1.63;;
33495;SDS011;19836;55.812;37.560;2022-09-27T15:01:48;1.90;;;1.50;;
33495;SDS011;19836;55.812;37.560;2022-09-27T15:04:15;3.53;;;1.98;;
33495;SDS011;19836;55.812;37.560;2022-09-27T15:06:43;2.22;;;1.73;;
33495;SDS011;19836;55.812;37.560;2022-09-27T15:09:11;9.23;;;2.65;;
33495;SDS011;19836;55.812;37.560;2022-09-27T15:11:39;7.57;;;2.83;;
33495;SDS011;19836;55.812;37.560;2022-09-27T15:14:06;18.17;;;4.78;;
33495;SDS011;19836;55.812;37.560;2022-09-27T15:16:38;30.15;;;10.73;;
33495;SDS011;19836;55.812;37.560;2022-09-27T15:19:16;7.07;;;3.50;;
33495;SDS011;19836;55.812;37.560;2022-09-27T15:21:48;48.08;;;24.15;;
33495;SDS011;19836;55.812;37.560;2022-09-27T15:27:15;16.30;;;8.13;;
33495;SDS011;19836;55.812;37.560;2022-09-27T15:29:46;27.20;;;11.75;;
33495;SDS011;19836;55.812;37.560;2022-09-27T15:32:14;15.60;;;6.97;;
33495;SDS011;19836;55.812;37.560;2022-09-27T15:34:44;7.35;;;3.60;;
33495;SDS011;19836;55.812;37.560;2022-09-27T15:37:23;4.85;;;3.80;;
33495;SDS011;19836;55.812;37.560;2022-09-27T15:39:52;16.52;;;6.05;;
33495;SDS011;19836;55.812;37.560;2022-09-27T15:42:18;5.90;;;3.40;;
33495;SDS011;19836;55.812;37.560;2022-09-27T15:44:45;6.93;;;3.80;;
33495;SDS011;19836;55.812;37.560;2022-09-27T15:52:43;12.32;;;5.47;;
33495;SDS011;19836;55.812;37.560;2022-09-27T15:55:20;6.32;;;3.47;;
33495;SDS011;19836;55.812;37.560;2022-09-27T15:58:33;5.95;;;4.78;;
33495;SDS011;19836;55.812;37.560;2022-09-27T16:00:53;10.82;;;6.38;;
33495;SDS011;19836;55.812;37.560;2022-09-27T16:03:22;4.80;;;2.63;;
33495;SDS011;19836;55.812;37.560;2022-09-27T16:05:49;5.40;;;2.95;;
33495;SDS011;19836;55.812;37.560;2022-09-27T16:08:16;5.93;;;2.88;;
33495;SDS011;19836;55.812;37.560;2022-09-27T16:10:43;5.03;;;2.70;;
33495;SDS011;19836;55.812;37.560;2022-09-27T16:15:38;5.90;;;3.15;;
33495;SDS011;19836;55.812;37.560;2022-09-27T16:18:08;8.68;;;4.00;;
33495;SDS011;19836;55.812;37.560;2022-09-27T16:23:36;4.78;;;2.47;;
33495;SDS011;19836;55.812;37.560;2022-09-27T16:26:03;4.95;;;2.72;;
33495;SDS011;19836;55.812;37.560;2022-09-27T16:28:30;4.80;;;2.88;;
33495;SDS011;19836;55.812;37.560;2022-09-27T16:31:05;5.18;;;3.10;;
33495;SDS011;19836;55.812;37.560;2022-09-27T16:36:53;5.93;;;2.97;;
33495;SDS011;19836;55.812;37.560;2022-09-27T16:42:51;5.07;;;2.95;;
33495;SDS011;19836;55.812;37.560;2022-09-27T16:45:22;3.47;;;2.45;;
33495;SDS011;19836;55.812;37.560;2022-09-27T16:47:59;3.70;;;2.80;;
33495;SDS011;19836;55.812;37.560;2022-09-27T16:50:26;4.60;;;2.55;;
33495;SDS011;19836;55.812;37.560;2022-09-27T16:56:14;2.55;;;2.20;;
33495;SDS011;19836;55.812;37.560;2022-09-27T16:58:43;3.22;;;2.70;;
33495;SDS011;19836;55.812;37.560;2022-09-27T17:11:14;5.00;;;2.67;;
33495;SDS011;19836;55.812;37.560;2022-09-27T17:13:52;2.60;;;2.25;;
33495;SDS011;19836;55.812;37.560;2022-09-27T17:16:21;3.05;;;2.72;;
33495;SDS011;19836;55.812;37.560;2022-09-27T17:18:50;6.10;;;2.60;;
33495;SDS011;19836;55.812;37.560;2022-09-27T17:21:39;3.25;;;2.78;;
33495;SDS011;19836;55.812;37.560;2022-09-27T17:24:06;2.67;;;2.40;;
33495;SDS011;19836;55.812;37.560;2022-09-27T17:26:33;3.75;;;2.42;;
33495;SDS011;19836;55.812;37.560;2022-09-27T17:28:59;3.38;;;2.50;;
33495;SDS011;19836;55.812;37.560;2022-09-27T17:31:27;3.90;;;2.70;;
33495;SDS011;19836;55.812;37.560;2022-09-27T17:33:55;5.93;;;3.13;;
33495;SDS011;19836;55.812;37.560;2022-09-27T17:36:26;3.78;;;3.17;;
33495;SDS011;19836;55.812;37.560;2022-09-27T17:42:22;7.07;;;4.22;;
33495;SDS011;19836;55.812;37.560;2022-09-27T17:44:49;4.07;;;2.80;;
33495;SDS011;19836;55.812;37.560;2022-09-27T17:47:21;4.50;;;2.97;;
33495;SDS011;19836;55.812;37.560;2022-09-27T17:50:07;4.13;;;2.90;;
33495;SDS011;19836;55.812;37.560;2022-09-27T17:52:52;3.50;;;3.17;;
33495;SDS011;19836;55.812;37.560;2022-09-27T17:55:19;5.05;;;3.45;;
33495;SDS011;19836;55.812;37.560;2022-09-27T17:57:49;5.40;;;3.38;;
33495;SDS011;19836;55.812;37.560;2022-09-27T18:00:16;4.57;;;2.92;;
33495;SDS011;19836;55.812;37.560;2022-09-27T18:02:45;4.70;;;3.10;;
33495;SDS011;19836;55.812;37.560;2022-09-27T18:05:12;3.60;;;2.97;;
33495;SDS011;19836;55.812;37.560;2022-09-27T18:28:15;4.70;;;3.03;;
33495;SDS011;19836;55.812;37.560;2022-09-27T18:34:17;4.97;;;3.45;;
33495;SDS011;19836;55.812;37.560;2022-09-27T18:36:43;4.95;;;3.33;;
33495;SDS011;19836;55.812;37.560;2022-09-27T18:39:11;4.82;;;3.22;;
33495;SDS011;19836;55.812;37.560;2022-09-27T18:41:39;4.28;;;2.70;;
33495;SDS011;19836;55.812;37.560;2022-09-27T18:48:31;3.85;;;2.67;;
33495;SDS011;19836;55.812;37.560;2022-09-27T18:51:50;3.67;;;2.60;;
33495;SDS011;19836;55.812;37.560;2022-09-27T18:54:18;3.25;;;2.50;;
33495;SDS011;19836;55.812;37.560;2022-09-27T18:56:50;3.97;;;2.60;;
33495;SDS011;19836;55.812;37.560;2022-09-27T18:59:17;4.63;;;2.92;;
33495;SDS011;19836;55.812;37.560;2022-09-27T19:01:49;4.35;;;2.95;;
33495;SDS011;19836;55.812;37.560;2022-09-27T19:04:26;4.00;;;3.22;;
33495;SDS011;19836;55.812;37.560;2022-09-27T19:06:58;7.35;;;3.92;;
33495;SDS011;19836;55.812;37.560;2022-09-27T19:09:30;4.43;;;3.33;;
33495;SDS011;19836;55.812;37.560;2022-09-27T19:11:59;8.63;;;3.75;;
33495;SDS011;19836;55.812;37.560;2022-09-27T19:14:34;5.78;;;4.00;;
33495;SDS011;19836;55.812;37.560;2022-09-27T19:17:10;5.82;;;3.97;;
33495;SDS011;19836;55.812;37.560;2022-09-27T19:19:39;5.13;;;3.57;;
33495;SDS011;19836;55.812;37.560;2022-09-27T19:22:06;5.05;;;3.50;;
33495;SDS011;19836;55.812;37.560;2022-09-27T19:25:03;6.35;;;3.65;;
33495;SDS011;19836;55.812;37.560;2022-09-27T19:27:42;5.90;;;3.90;;
33495;SDS011;19836;55.812;37.560;2022-09-27T19:57:28;6.40;;;4.88;;
33495;SDS011;19836;55.812;37.560;2022-09-27T19:59:54;6.13;;;5.00;;
33495;SDS011;19836;55.812;37.560;2022-09-27T20:02:20;7.13;;;5.55;;
33495;SDS011;19836;55.812;37.560;2022-09-27T20:04:46;7.35;;;5.85;;
33495;SDS011;19836;55.812;37.560;2022-09-27T20:07:12;6.30;;;5.15;;
33495;SDS011;19836;55.812;37.560;2022-09-27T20:09:38;5.38;;;4.88;;
33495;SDS011;19836;55.812;37.560;2022-09-27T20:12:12;5.22;;;4.72;;
33495;SDS011;19836;55.812;37.560;2022-09-27T20:17:54;6.18;;;4.47;;
33495;SDS011;19836;55.812;37.560;2022-09-27T20:20:48;4.85;;;4.18;;
33495;SDS011;19836;55.812;37.560;2022-09-27T20:23:21;5.55;;;4.03;;
33495;SDS011;19836;55.812;37.560;2022-09-27T20:25:50;4.97;;;4.28;;
33495;SDS011;19836;55.812;37.560;2022-09-27T20:28:44;4.28;;;3.88;;
33495;SDS011;19836;55.812;37.560;2022-09-27T20:31:15;3.95;;;3.65;;
33495;SDS011;19836;55.812;37.560;2022-09-27T20:34:25;5.38;;;4.28;;
33495;SDS011;19836;55.812;37.560;2022-09-27T20:39:38;4.68;;;3.90;;
33495;SDS011;19836;55.812;37.560;2022-09-27T20:42:26;9.52;;;6.03;;
